sensor_id;sensor_type;location;lat;lon;timestamp;pressure;altitude;pressure_sealevel;temperature;humidity
69221;BME280;56331;51.992;20.910;2022-08-04T00:01:40;100530.53;;;26.36;52.35
69221;BME280;56331;51.992;20.910;2022-08-04T00:04:13;100530.53;;;26.36;52.38
69221;BME280;56331;51.992;20.910;2022-08-04T00:06:57;100536.12;;;26.36;52.31
69221;BME280;56331;51.992;20.910;2022-08-04T00:11:57;100536.12;;;26.36;52.21
69221;BME280;56331;51.992;20.910;2022-08-04T00:14:25;100532.88;;;26.34;52.11
69221;BME280;56331;51.992;20.910;2022-08-04T00:16:53;100530.89;;;26.34;52.07
69221;BME280;56331;51.992;20.910;2022-08-04T00:19:27;100533.68;;;26.34;52.00
69221;BME280;56331;51.992;20.910;2022-08-04T00:22:03;100531.69;;;26.35;51.98
69221;BME280;56331;51.992;20.910;2022-08-04T00:24:33;100535.87;;;26.35;51.93
69221;BME280;56331;51.992;20.910;2022-08-04T00:27:01;100532.28;;;26.34;51.80
69221;BME280;56331;51.992;20.910;2022-08-04T00:29:28;100532.49;;;26.35;51.77
69221;BME280;56331;51.992;20.910;2022-08-04T00:31:55;100537.27;;;26.35;51.66
69221;BME280;56331;51.992;20.910;2022-08-04T00:34:25;100540.07;;;26.35;51.55
69221;BME280;56331;51.992;20.910;2022-08-04T00:36:53;100537.06;;;26.34;51.53
69221;BME280;56331;51.992;20.910;2022-08-04T00:39:21;100535.08;;;26.34;51.48
69221;BME280;56331;51.992;20.910;2022-08-04T00:50:48;100539.63;;;26.33;51.16
69221;BME280;56331;51.992;20.910;2022-08-04T01:07:56;100537.56;;;26.30;50.87
69221;BME280;56331;51.992;20.910;2022-08-04T01:10:47;100536.55;;;26.28;50.73
69221;BME280;56331;51.992;20.910;2022-08-04T01:16:03;100542.70;;;26.28;50.64
69221;BME280;56331;51.992;20.910;2022-08-04T01:18:55;100542.70;;;26.28;50.57
69221;BME280;56331;51.992;20.910;2022-08-04T01:34:55;100555.06;;;26.27;50.06
69221;BME280;56331;51.992;20.910;2022-08-04T01:37:52;100553.67;;;26.27;50.12
69221;BME280;56331;51.992;20.910;2022-08-04T01:40:33;100558.75;;;26.31;49.89
69221;BME280;56331;51.992;20.910;2022-08-04T01:43:02;100560.44;;;26.26;49.96
69221;BME280;56331;51.992;20.910;2022-08-04T01:45:32;100556.25;;;26.26;49.91
69221;BME280;56331;51.992;20.910;2022-08-04T01:48:02;100561.24;;;26.26;49.80
69221;BME280;56331;51.992;20.910;2022-08-04T01:50:32;100550.88;;;26.27;49.75
69221;BME280;56331;51.992;20.910;2022-08-04T01:53:02;100547.88;;;26.26;49.75
69221;BME280;56331;51.992;20.910;2022-08-04T01:55:30;100547.28;;;26.26;49.67
69221;BME280;56331;51.992;20.910;2022-08-04T01:57:59;100553.45;;;26.26;49.58
69221;BME280;56331;51.992;20.910;2022-08-04T02:00:28;100547.04;;;26.25;49.60
69221;BME280;56331;51.992;20.910;2022-08-04T02:02:56;100557.86;;;26.27;49.78
69221;BME280;56331;51.992;20.910;2022-08-04T02:05:25;100557.86;;;26.27;49.78
69221;BME280;56331;51.992;20.910;2022-08-04T02:08:13;100552.86;;;26.26;49.34
69221;BME280;56331;51.992;20.910;2022-08-04T02:16:05;100545.64;;;26.25;49.27
69221;BME280;56331;51.992;20.910;2022-08-04T02:21:05;100539.84;;;26.24;49.11
69221;BME280;56331;51.992;20.910;2022-08-04T02:23:38;100537.65;;;26.24;48.99
69221;BME280;56331;51.992;20.910;2022-08-04T02:26:19;100533.46;;;26.24;49.10
69221;BME280;56331;51.992;20.910;2022-08-04T02:28:54;100539.64;;;26.23;49.04
69221;BME280;56331;51.992;20.910;2022-08-04T02:34:24;100535.00;;;26.21;48.77
69221;BME280;56331;51.992;20.910;2022-08-04T02:36:54;100537.41;;;26.23;48.92
69221;BME280;56331;51.992;20.910;2022-08-04T02:39:22;100535.80;;;26.22;48.85
69221;BME280;56331;51.992;20.910;2022-08-04T02:41:52;100535.80;;;26.22;48.73
69221;BME280;56331;51.992;20.910;2022-08-04T02:44:22;100531.02;;;26.22;48.71
69221;BME280;56331;51.992;20.910;2022-08-04T02:46:51;100525.44;;;26.22;48.73
69221;BME280;56331;51.992;20.910;2022-08-04T02:49:20;100526.03;;;26.22;48.81
69221;BME280;56331;51.992;20.910;2022-08-04T02:51:54;100529.42;;;26.21;48.73
69221;BME280;56331;51.992;20.910;2022-08-04T02:54:24;100526.41;;;26.20;48.62
69221;BME280;56331;51.992;20.910;2022-08-04T02:56:52;100530.22;;;26.22;48.53
69221;BME280;56331;51.992;20.910;2022-08-04T02:59:24;100533.01;;;26.22;48.43
69221;BME280;56331;51.992;20.910;2022-08-04T03:01:55;100528.61;;;26.21;48.41
69221;BME280;56331;51.992;20.910;2022-08-04T03:07:42;100524.42;;;26.21;48.35
69221;BME280;56331;51.992;20.910;2022-08-04T03:16:02;100532.95;;;26.18;48.30
69221;BME280;56331;51.992;20.910;2022-08-04T03:24:24;100545.41;;;26.14;48.09
69221;BME280;56331;51.992;20.910;2022-08-04T03:29:49;100547.64;;;26.15;48.08
69221;BME280;56331;51.992;20.910;2022-08-04T03:35:23;100546.25;;;26.15;48.08
69221;BME280;56331;51.992;20.910;2022-08-04T03:38:25;100546.60;;;26.13;47.98
69221;BME280;56331;51.992;20.910;2022-08-04T03:46:57;100551.38;;;26.13;48.00
69221;BME280;56331;51.992;20.910;2022-08-04T04:01:42;100555.92;;;26.11;47.93
69221;BME280;56331;51.992;20.910;2022-08-04T04:15:13;100570.69;;;26.12;48.07
69221;BME280;56331;51.992;20.910;2022-08-04T04:54:04;100578.64;;;26.10;48.53
69221;BME280;56331;51.992;20.910;2022-08-04T04:57:00;100580.04;;;26.10;48.56
69221;BME280;56331;51.992;20.910;2022-08-04T04:59:30;100586.19;;;26.09;48.60
69221;BME280;56331;51.992;20.910;2022-08-04T05:10:12;100587.02;;;26.10;48.88
69221;BME280;56331;51.992;20.910;2022-08-04T05:15:36;100592.61;;;26.10;49.06
69221;BME280;56331;51.992;20.910;2022-08-04T05:18:06;100589.42;;;26.11;49.09
69221;BME280;56331;51.992;20.910;2022-08-04T05:20:37;100591.20;;;26.10;49.13
69221;BME280;56331;51.992;20.910;2022-08-04T05:23:17;100595.60;;;26.11;49.12
69221;BME280;56331;51.992;20.910;2022-08-04T05:25:56;100592.22;;;26.11;49.15
69221;BME280;56331;51.992;20.910;2022-08-04T05:31:10;100586.64;;;26.11;49.23
69221;BME280;56331;51.992;20.910;2022-08-04T05:33:44;100591.06;;;26.12;49.29
69221;BME280;56331;51.992;20.910;2022-08-04T05:36:14;100592.46;;;26.12;49.28
69221;BME280;56331;51.992;20.910;2022-08-04T05:38:41;100590.23;;;26.12;49.30
69221;BME280;56331;51.992;20.910;2022-08-04T05:41:09;100595.25;;;26.12;49.29
69221;BME280;56331;51.992;20.910;2022-08-04T05:43:41;100598.26;;;26.13;49.39
69221;BME280;56331;51.992;20.910;2022-08-04T05:46:09;100594.28;;;26.14;49.43
69221;BME280;56331;51.992;20.910;2022-08-04T05:48:36;100600.24;;;26.13;49.44
69221;BME280;56331;51.992;20.910;2022-08-04T05:51:04;100597.45;;;26.13;49.53
69221;BME280;56331;51.992;20.910;2022-08-04T05:53:33;100598.26;;;26.13;49.54
69221;BME280;56331;51.992;20.910;2022-08-04T05:56:01;100606.63;;;26.13;49.58
69221;BME280;56331;51.992;20.910;2022-08-04T05:58:28;100607.44;;;26.14;49.62
69221;BME280;56331;51.992;20.910;2022-08-04T06:00:57;100608.83;;;26.14;49.67
69221;BME280;56331;51.992;20.910;2022-08-04T06:03:25;100615.45;;;26.15;49.70
69221;BME280;56331;51.992;20.910;2022-08-04T06:05:53;100607.44;;;26.14;49.73
69221;BME280;56331;51.992;20.910;2022-08-04T06:08:21;100609.63;;;26.14;49.73
69221;BME280;56331;51.992;20.910;2022-08-04T06:10:50;100610.81;;;26.13;49.71
69221;BME280;56331;51.992;20.910;2022-08-04T06:13:21;100609.42;;;26.13;49.71
69221;BME280;56331;51.992;20.910;2022-08-04T06:15:49;100608.03;;;26.13;49.69
69221;BME280;56331;51.992;20.910;2022-08-04T06:18:16;100611.62;;;26.14;49.66
69221;BME280;56331;51.992;20.910;2022-08-04T06:20:45;100610.81;;;26.13;49.71
69221;BME280;56331;51.992;20.910;2022-08-04T06:23:14;100608.23;;;26.14;49.63
69221;BME280;56331;51.992;20.910;2022-08-04T06:25:47;100615.22;;;26.14;49.61
69221;BME280;56331;51.992;20.910;2022-08-04T06:28:15;100615.01;;;26.13;49.56
69221;BME280;56331;51.992;20.910;2022-08-04T06:30:42;100614.41;;;26.14;49.49
69221;BME280;56331;51.992;20.910;2022-08-04T06:33:13;100616.41;;;26.13;49.48
69221;BME280;56331;51.992;20.910;2022-08-04T06:35:52;100615.81;;;26.14;49.48
69221;BME280;56331;51.992;20.910;2022-08-04T06:38:24;100613.41;;;26.12;49.51
69221;BME280;56331;51.992;20.910;2022-08-04T06:40:52;100621.19;;;26.13;49.56
69221;BME280;56331;51.992;20.910;2022-08-04T06:43:21;100618.39;;;26.13;49.59
69221;BME280;56331;51.992;20.910;2022-08-04T06:45:48;100613.89;;;26.08;49.69
69221;BME280;56331;51.992;20.910;2022-08-04T06:48:16;100618.60;;;26.14;49.65
69221;BME280;56331;51.992;20.910;2022-08-04T06:50:47;100624.19;;;26.14;49.78
69221;BME280;56331;51.992;20.910;2022-08-04T06:53:15;100620.00;;;26.14;49.97
69221;BME280;56331;51.992;20.910;2022-08-04T06:55:44;100618.84;;;26.15;50.13
69221;BME280;56331;51.992;20.910;2022-08-04T06:58:12;100618.25;;;26.15;50.39
69221;BME280;56331;51.992;20.910;2022-08-04T07:00:42;100618.46;;;26.16;50.47
69221;BME280;56331;51.992;20.910;2022-08-04T07:03:10;100613.33;;;26.18;50.45
69221;BME280;56331;51.992;20.910;2022-08-04T07:05:39;100613.92;;;26.18;50.49
69221;BME280;56331;51.992;20.910;2022-08-04T07:08:11;100614.38;;;26.20;50.49
69221;BME280;56331;51.992;20.910;2022-08-04T07:10:38;100619.36;;;26.21;50.58
69221;BME280;56331;51.992;20.910;2022-08-04T07:13:07;100621.36;;;26.20;50.59
69221;BME280;56331;51.992;20.910;2022-08-04T07:15:35;100614.87;;;26.16;50.55
69221;BME280;56331;51.992;20.910;2022-08-04T07:18:04;100613.27;;;26.15;50.57
69221;BME280;56331;51.992;20.910;2022-08-04T07:20:31;100608.69;;;26.16;50.42
69221;BME280;56331;51.992;20.910;2022-08-04T07:22:59;100609.49;;;26.17;50.33
69221;BME280;56331;51.992;20.910;2022-08-04T07:25:27;100617.52;;;26.18;50.28
69221;BME280;56331;51.992;20.910;2022-08-04T07:27:55;100612.39;;;26.21;50.38
69221;BME280;56331;51.992;20.910;2022-08-04T07:30:24;100619.79;;;26.23;50.28
69221;BME280;56331;51.992;20.910;2022-08-04T07:32:53;100616.78;;;26.22;50.44
69221;BME280;56331;51.992;20.910;2022-08-04T07:35:23;100621.78;;;26.22;50.85
69221;BME280;56331;51.992;20.910;2022-08-04T07:37:50;100623.98;;;26.23;51.14
69221;BME280;56331;51.992;20.910;2022-08-04T07:40:17;100622.82;;;26.24;51.34
69221;BME280;56331;51.992;20.910;2022-08-04T07:42:47;100623.77;;;26.22;52.21
69221;BME280;56331;51.992;20.910;2022-08-04T07:45:18;100629.56;;;26.23;52.96
69221;BME280;56331;51.992;20.910;2022-08-04T07:47:48;100629.56;;;26.23;53.50
69221;BME280;56331;51.992;20.910;2022-08-04T07:50:15;100628.16;;;26.23;53.48
69221;BME280;56331;51.992;20.910;2022-08-04T07:52:44;100622.82;;;26.24;53.51
69221;BME280;56331;51.992;20.910;2022-08-04T07:55:12;100618.04;;;26.24;53.44
69221;BME280;56331;51.992;20.910;2022-08-04T07:57:39;100622.23;;;26.24;53.20
69221;BME280;56331;51.992;20.910;2022-08-04T08:00:08;100618.04;;;26.24;53.23
69221;BME280;56331;51.992;20.910;2022-08-04T08:02:36;100616.64;;;26.24;53.20
69221;BME280;56331;51.992;20.910;2022-08-04T08:05:04;100619.44;;;26.24;53.10
69221;BME280;56331;51.992;20.910;2022-08-04T08:07:33;100613.85;;;26.24;53.06
69221;BME280;56331;51.992;20.910;2022-08-04T08:10:00;100610.84;;;26.23;53.01
69221;BME280;56331;51.992;20.910;2022-08-04T08:12:28;100609.21;;;26.22;52.97
69221;BME280;56331;51.992;20.910;2022-08-04T08:14:57;100614.80;;;26.22;52.88
69221;BME280;56331;51.992;20.910;2022-08-04T08:17:24;100598.42;;;26.21;52.82
69221;BME280;56331;51.992;20.910;2022-08-04T08:19:51;100613.78;;;26.21;52.79
69221;BME280;56331;51.992;20.910;2022-08-04T08:22:18;100607.95;;;26.19;52.75
69221;BME280;56331;51.992;20.910;2022-08-04T08:24:45;100614.13;;;26.19;52.72
69221;BME280;56331;51.992;20.910;2022-08-04T08:27:11;100610.89;;;26.17;52.67
69221;BME280;56331;51.992;20.910;2022-08-04T08:29:38;100615.91;;;26.17;52.60
69221;BME280;56331;51.992;20.910;2022-08-04T08:32:08;100615.08;;;26.17;52.59
69221;BME280;56331;51.992;20.910;2022-08-04T08:34:36;100619.72;;;26.19;52.54
69221;BME280;56331;51.992;20.910;2022-08-04T08:40:19;100618.25;;;26.15;52.49
69221;BME280;56331;51.992;20.910;2022-08-04T09:08:36;100619.13;;;26.10;50.94
69221;BME280;56331;51.992;20.910;2022-08-04T09:11:05;100612.84;;;26.07;50.85
69221;BME280;56331;51.992;20.910;2022-08-04T09:16:30;100612.56;;;26.02;50.60
69221;BME280;56331;51.992;20.910;2022-08-04T09:19:14;100617.31;;;26.02;50.32
69221;BME280;56331;51.992;20.910;2022-08-04T09:22:00;100611.17;;;26.02;50.10
69221;BME280;56331;51.992;20.910;2022-08-04T09:27:23;100611.17;;;26.02;49.92
69221;BME280;56331;51.992;20.910;2022-08-04T09:30:07;100603.50;;;25.99;50.04
69221;BME280;56331;51.992;20.910;2022-08-04T09:32:55;100606.53;;;26.00;50.02
69221;BME280;56331;51.992;20.910;2022-08-04T09:46:39;100607.02;;;25.96;49.98
69221;BME280;56331;51.992;20.910;2022-08-04T10:00:04;100602.55;;;25.91;49.82
69221;BME280;56331;51.992;20.910;2022-08-04T10:02:34;100599.17;;;25.92;49.61
69221;BME280;56331;51.992;20.910;2022-08-04T10:05:01;100602.55;;;25.91;49.62
69221;BME280;56331;51.992;20.910;2022-08-04T10:07:44;100601.36;;;25.92;49.72
69221;BME280;56331;51.992;20.910;2022-08-04T10:10:18;100602.76;;;25.92;49.67
69221;BME280;56331;51.992;20.910;2022-08-04T10:21:31;100598.92;;;25.91;50.09
69221;BME280;56331;51.992;20.910;2022-08-04T10:29:25;100586.36;;;25.91;50.07
69221;BME280;56331;51.992;20.910;2022-08-04T10:32:03;100588.80;;;25.92;50.05
69221;BME280;56331;51.992;20.910;2022-08-04T10:34:31;100588.80;;;25.92;50.07
69221;BME280;56331;51.992;20.910;2022-08-04T10:37:05;100588.00;;;25.92;50.08
69221;BME280;56331;51.992;20.910;2022-08-04T10:42:46;100588.94;;;25.90;50.14
69221;BME280;56331;51.992;20.910;2022-08-04T10:45:22;100584.16;;;25.90;50.11
69221;BME280;56331;51.992;20.910;2022-08-04T10:50:25;100578.38;;;25.89;50.16
69221;BME280;56331;51.992;20.910;2022-08-04T10:53:08;100579.53;;;25.88;50.13
69221;BME280;56331;51.992;20.910;2022-08-04T10:58:11;100577.33;;;25.88;50.13
69221;BME280;56331;51.992;20.910;2022-08-04T11:00:38;100572.34;;;25.87;50.08
69221;BME280;56331;51.992;20.910;2022-08-04T11:05:48;100572.93;;;25.87;50.13
69221;BME280;56331;51.992;20.910;2022-08-04T11:08:24;100574.33;;;25.87;50.13
69221;BME280;56331;51.992;20.910;2022-08-04T11:11:00;100574.92;;;25.86;50.15
69221;BME280;56331;51.992;20.910;2022-08-04T11:13:32;100570.14;;;25.87;50.13
69221;BME280;56331;51.992;20.910;2022-08-04T11:16:01;100563.16;;;25.87;50.09
69221;BME280;56331;51.992;20.910;2022-08-04T11:21:15;100560.38;;;25.87;50.08
69221;BME280;56331;51.992;20.910;2022-08-04T11:26:45;100560.38;;;25.87;50.08
69221;BME280;56331;51.992;20.910;2022-08-04T11:32:25;100562.57;;;25.87;50.06
69221;BME280;56331;51.992;20.910;2022-08-04T11:34:54;100556.53;;;25.85;49.95
69221;BME280;56331;51.992;20.910;2022-08-04T11:40:10;100557.80;;;25.88;49.50
69221;BME280;56331;51.992;20.910;2022-08-04T11:42:41;100560.38;;;25.87;49.51
69221;BME280;56331;51.992;20.910;2022-08-04T11:45:17;100558.03;;;25.89;49.52
69221;BME280;56331;51.992;20.910;2022-08-04T11:50:36;100563.61;;;25.89;49.43
69221;BME280;56331;51.992;20.910;2022-08-04T11:53:03;100560.23;;;25.89;49.32
69221;BME280;56331;51.992;20.910;2022-08-04T11:55:31;100554.20;;;25.87;49.03
69221;BME280;56331;51.992;20.910;2022-08-04T11:57:58;100551.61;;;25.88;48.87
69221;BME280;56331;51.992;20.910;2022-08-04T12:00:27;100557.44;;;25.89;48.88
69221;BME280;56331;51.992;20.910;2022-08-04T12:03:10;100556.63;;;25.89;48.96
69221;BME280;56331;51.992;20.910;2022-08-04T12:09:03;100549.59;;;25.95;48.77
69221;BME280;56331;51.992;20.910;2022-08-04T12:17:01;100545.82;;;25.87;48.30
69221;BME280;56331;51.992;20.910;2022-08-04T12:22:03;100538.25;;;25.88;48.03
69221;BME280;56331;51.992;20.910;2022-08-04T12:24:43;100546.03;;;25.88;47.96
69221;BME280;56331;51.992;20.910;2022-08-04T12:27:12;100536.27;;;25.88;47.88
69221;BME280;56331;51.992;20.910;2022-08-04T12:29:40;100534.31;;;25.89;47.99
69221;BME280;56331;51.992;20.910;2022-08-04T12:32:16;100538.70;;;25.90;47.87
69221;BME280;56331;51.992;20.910;2022-08-04T12:34:57;100537.31;;;25.90;47.87
69221;BME280;56331;51.992;20.910;2022-08-04T12:39:59;100530.33;;;25.90;48.09
69221;BME280;56331;51.992;20.910;2022-08-04T12:42:33;100526.95;;;25.90;48.09
69221;BME280;56331;51.992;20.910;2022-08-04T12:45:03;100527.54;;;25.90;48.21
69221;BME280;56331;51.992;20.910;2022-08-04T12:47:30;100529.53;;;25.89;48.28
69221;BME280;56331;51.992;20.910;2022-08-04T12:49:59;100522.77;;;25.90;48.32
69221;BME280;56331;51.992;20.910;2022-08-04T12:52:41;100522.55;;;25.89;48.30
69221;BME280;56331;51.992;20.910;2022-08-04T12:55:03;100513.59;;;25.90;48.38
69221;BME280;56331;51.992;20.910;2022-08-04T12:57:31;100520.77;;;25.91;48.37
69221;BME280;56331;51.992;20.910;2022-08-04T12:59:59;100510.80;;;25.90;48.40
69221;BME280;56331;51.992;20.910;2022-08-04T13:02:35;100514.63;;;25.91;48.37
69221;BME280;56331;51.992;20.910;2022-08-04T13:05:04;100516.02;;;25.91;48.44
69221;BME280;56331;51.992;20.910;2022-08-04T13:10:15;100509.05;;;25.91;48.49
69221;BME280;56331;51.992;20.910;2022-08-04T13:12:50;100504.27;;;25.92;48.51
69221;BME280;56331;51.992;20.910;2022-08-04T13:15:15;100501.69;;;25.93;48.56
69221;BME280;56331;51.992;20.910;2022-08-04T13:17:57;100498.69;;;25.92;48.53
69221;BME280;56331;51.992;20.910;2022-08-04T13:23:06;100500.08;;;25.92;48.51
69221;BME280;56331;51.992;20.910;2022-08-04T13:25:46;100497.00;;;25.97;48.57
69221;BME280;56331;51.992;20.910;2022-08-04T13:28:23;100495.89;;;25.92;48.57
69221;BME280;56331;51.992;20.910;2022-08-04T13:30:55;100487.07;;;25.90;48.61
69221;BME280;56331;51.992;20.910;2022-08-04T13:33:30;100491.47;;;25.91;48.54
69221;BME280;56331;51.992;20.910;2022-08-04T13:35:57;100493.70;;;25.91;48.38
69221;BME280;56331;51.992;20.910;2022-08-04T13:38:26;100493.91;;;25.92;48.53
69221;BME280;56331;51.992;20.910;2022-08-04T13:46:04;100480.55;;;25.92;48.24
69221;BME280;56331;51.992;20.910;2022-08-04T13:48:33;100480.55;;;25.92;48.45
69221;BME280;56331;51.992;20.910;2022-08-04T13:51:03;100473.33;;;25.91;48.51
69221;BME280;56331;51.992;20.910;2022-08-04T13:53:32;100467.19;;;25.91;48.38
69221;BME280;56331;51.992;20.910;2022-08-04T13:56:15;100466.30;;;25.97;48.44
69221;BME280;56331;51.992;20.910;2022-08-04T13:58:44;100469.38;;;25.92;48.41
69221;BME280;56331;51.992;20.910;2022-08-04T14:01:27;100470.77;;;25.92;48.49
69221;BME280;56331;51.992;20.910;2022-08-04T14:04:02;100470.77;;;25.92;48.49
69221;BME280;56331;51.992;20.910;2022-08-04T14:06:35;100463.41;;;25.93;48.03
69221;BME280;56331;51.992;20.910;2022-08-04T14:11:46;100461.81;;;25.92;47.53
69221;BME280;56331;51.992;20.910;2022-08-04T14:17:12;100461.01;;;25.92;47.35
69221;BME280;56331;51.992;20.910;2022-08-04T14:25:13;100456.23;;;25.92;46.98
69221;BME280;56331;51.992;20.910;2022-08-04T14:27:54;100455.42;;;25.92;46.97
69221;BME280;56331;51.992;20.910;2022-08-04T14:33:06;100456.81;;;25.92;46.97
69221;BME280;56331;51.992;20.910;2022-08-04T14:35:34;100451.23;;;25.92;46.93
69221;BME280;56331;51.992;20.910;2022-08-04T14:38:04;100444.85;;;25.91;46.86
69221;BME280;56331;51.992;20.910;2022-08-04T14:40:34;100442.62;;;25.91;46.78
69221;BME280;56331;51.992;20.910;2022-08-04T14:43:02;100448.45;;;25.92;46.82
69221;BME280;56331;51.992;20.910;2022-08-04T14:48:00;100450.64;;;25.92;46.83
69221;BME280;56331;51.992;20.910;2022-08-04T14:50:39;100447.85;;;25.92;46.80
69221;BME280;56331;51.992;20.910;2022-08-04T14:53:09;100449.45;;;25.93;46.72
69221;BME280;56331;51.992;20.910;2022-08-04T14:55:55;100441.98;;;25.97;46.57
69221;BME280;56331;51.992;20.910;2022-08-04T14:58:25;100443.45;;;25.91;46.50
69221;BME280;56331;51.992;20.910;2022-08-04T15:00:56;100440.87;;;25.92;46.52
69221;BME280;56331;51.992;20.910;2022-08-04T15:03:22;100435.30;;;25.92;46.51
69221;BME280;56331;51.992;20.910;2022-08-04T15:05:51;100431.25;;;25.90;46.46
69221;BME280;56331;51.992;20.910;2022-08-04T15:08:17;100433.90;;;25.92;46.53
69221;BME280;56331;51.992;20.910;2022-08-04T15:10:44;100429.12;;;25.93;46.64
69221;BME280;56331;51.992;20.910;2022-08-04T15:13:11;100432.50;;;25.92;46.61
69221;BME280;56331;51.992;20.910;2022-08-04T15:15:40;100428.52;;;25.93;46.60
69221;BME280;56331;51.992;20.910;2022-08-04T15:18:08;100429.92;;;25.93;46.65
69221;BME280;56331;51.992;20.910;2022-08-04T15:20:34;100423.33;;;25.92;46.82
69221;BME280;56331;51.992;20.910;2022-08-04T15:23:04;100427.52;;;25.92;47.03
69221;BME280;56331;51.992;20.910;2022-08-04T15:25:38;100425.88;;;25.91;47.28
69221;BME280;56331;51.992;20.910;2022-08-04T15:28:06;100422.88;;;25.90;47.54
69221;BME280;56331;51.992;20.910;2022-08-04T15:30:34;100418.69;;;25.90;47.80
69221;BME280;56331;51.992;20.910;2022-08-04T15:33:04;100421.69;;;25.91;48.11
69221;BME280;56331;51.992;20.910;2022-08-04T15:35:31;100422.52;;;25.91;48.28
69221;BME280;56331;51.992;20.910;2022-08-04T15:38:14;100416.70;;;25.90;48.47
69221;BME280;56331;51.992;20.910;2022-08-04T15:40:53;100418.69;;;25.90;48.72
69221;BME280;56331;51.992;20.910;2022-08-04T15:46:24;100422.88;;;25.90;49.09
69221;BME280;56331;51.992;20.910;2022-08-04T15:48:49;100425.08;;;25.90;49.32
69221;BME280;56331;51.992;20.910;2022-08-04T15:51:25;100429.27;;;25.90;49.42
69221;BME280;56331;51.992;20.910;2022-08-04T15:56:46;100427.27;;;25.91;49.61
69221;BME280;56331;51.992;20.910;2022-08-04T15:59:13;100425.67;;;25.90;49.66
69221;BME280;56331;51.992;20.910;2022-08-04T16:01:41;100428.67;;;25.91;49.76
69221;BME280;56331;51.992;20.910;2022-08-04T16:04:23;100423.69;;;25.90;49.79
69221;BME280;56331;51.992;20.910;2022-08-04T16:06:51;100418.91;;;25.91;49.85
69221;BME280;56331;51.992;20.910;2022-08-04T16:11:50;100417.51;;;25.91;49.94
69221;BME280;56331;51.992;20.910;2022-08-04T16:14:16;100412.52;;;25.90;49.94
69221;BME280;56331;51.992;20.910;2022-08-04T16:16:45;100420.53;;;25.92;49.95
69221;BME280;56331;51.992;20.910;2022-08-04T16:19:45;100410.77;;;25.92;49.99
69221;BME280;56331;51.992;20.910;2022-08-04T16:25:06;100408.03;;;25.95;50.02
69221;BME280;56331;51.992;20.910;2022-08-04T16:27:38;100413.31;;;25.91;50.09
69221;BME280;56331;51.992;20.910;2022-08-04T16:30:06;100416.11;;;25.91;50.13
69221;BME280;56331;51.992;20.910;2022-08-04T16:32:41;100408.56;;;25.91;50.14
69221;BME280;56331;51.992;20.910;2022-08-04T16:35:20;100406.58;;;25.92;50.14
69221;BME280;56331;51.992;20.910;2022-08-04T16:37:47;100407.38;;;25.92;50.00
69221;BME280;56331;51.992;20.910;2022-08-04T16:40:34;100399.01;;;25.92;50.00
69221;BME280;56331;51.992;20.910;2022-08-04T16:45:48;100396.22;;;25.92;49.98
69221;BME280;56331;51.992;20.910;2022-08-04T16:48:19;100397.02;;;25.93;50.05
69221;BME280;56331;51.992;20.910;2022-08-04T16:53:27;100397.61;;;25.92;50.13
69221;BME280;56331;51.992;20.910;2022-08-04T16:55:55;100397.61;;;25.92;50.30
69221;BME280;56331;51.992;20.910;2022-08-04T16:58:29;100402.16;;;25.91;50.37
69221;BME280;56331;51.992;20.910;2022-08-04T17:00:56;100403.79;;;25.92;50.69
69221;BME280;56331;51.992;20.910;2022-08-04T17:03:23;100395.42;;;25.92;50.75
69221;BME280;56331;51.992;20.910;2022-08-04T17:06:08;100396.22;;;25.92;51.08
69221;BME280;56331;51.992;20.910;2022-08-04T17:08:33;100392.03;;;25.92;51.08
69221;BME280;56331;51.992;20.910;2022-08-04T17:11:00;100394.61;;;25.91;51.50
69221;BME280;56331;51.992;20.910;2022-08-04T17:13:33;100392.83;;;25.93;51.65
69221;BME280;56331;51.992;20.910;2022-08-04T17:16:03;100389.83;;;25.92;51.93
69221;BME280;56331;51.992;20.910;2022-08-04T17:18:31;100391.44;;;25.93;52.10
69221;BME280;56331;51.992;20.910;2022-08-04T17:21:05;100397.02;;;25.93;52.42
69221;BME280;56331;51.992;20.910;2022-08-04T17:23:40;100396.42;;;25.93;52.52
69221;BME280;56331;51.992;20.910;2022-08-04T17:26:14;100398.62;;;25.94;52.67
69221;BME280;56331;51.992;20.910;2022-08-04T17:28:41;100396.22;;;25.92;52.87
69221;BME280;56331;51.992;20.910;2022-08-04T17:31:09;100392.03;;;25.92;52.95
69221;BME280;56331;51.992;20.910;2022-08-04T17:33:38;100397.02;;;25.93;52.92
69221;BME280;56331;51.992;20.910;2022-08-04T17:36:06;100405.39;;;25.93;52.98
69221;BME280;56331;51.992;20.910;2022-08-04T17:38:36;100397.82;;;25.93;53.06
69221;BME280;56331;51.992;20.910;2022-08-04T17:41:04;100399.81;;;25.93;53.07
69221;BME280;56331;51.992;20.910;2022-08-04T17:43:37;100401.41;;;25.94;53.09
69221;BME280;56331;51.992;20.910;2022-08-04T17:46:22;100399.22;;;25.93;53.15
69221;BME280;56331;51.992;20.910;2022-08-04T17:54:19;100401.00;;;25.92;53.21
69221;BME280;56331;51.992;20.910;2022-08-04T17:56:51;100402.01;;;25.93;53.28
69221;BME280;56331;51.992;20.910;2022-08-04T17:59:41;100403.79;;;25.92;53.24
69221;BME280;56331;51.992;20.910;2022-08-04T18:02:08;100399.81;;;25.93;53.32
69221;BME280;56331;51.992;20.910;2022-08-04T18:07:14;100400.41;;;25.92;53.37
69221;BME280;56331;51.992;20.910;2022-08-04T18:09:49;100396.22;;;25.92;53.34
69221;BME280;56331;51.992;20.910;2022-08-04T18:12:28;100395.63;;;25.93;53.36
69221;BME280;56331;51.992;20.910;2022-08-04T18:17:43;100408.19;;;25.93;53.33
69221;BME280;56331;51.992;20.910;2022-08-04T18:20:13;100410.77;;;25.92;53.31